Time;durP1;ratioP1;P1;durP2;ratioP2;P2;SDS_P1;SDS_P2;PMS_P1;PMS_P2;Temp;Humidity;BMP_temperature;BMP_pressure;BME280_temperature;BME280_humidity;BME280_pressure;Samples;Min_cycle;Max_cycle;Signal;HPM_P1;HPM_P2
2024/01/24 00:01:02;;;;;;;12.07;5.80;;;4.30;81.50;;;;;;6215529;28;20242;-78
2024/01/24 00:04:06;;;;;;;12.03;6.47;;;4.40;81.70;;;;;;6220180;28;20241;-78
2024/01/24 00:07:10;;;;;;;16.80;6.10;;;4.40;82.00;;;;;;6236285;28;20241;-78
2024/01/24 00:10:14;;;;;;;16.17;6.77;;;4.40;82.30;;;;;;6236080;28;20344;-79
2024/01/24 00:13:17;;;;;;;11.80;6.97;;;4.40;82.60;;;;;;6227732;28;20227;-79
2024/01/24 00:16:20;;;;;;;9.33;5.77;;;4.40;82.60;;;;;;6235219;28;20329;-81
2024/01/24 00:19:23;;;;;;;9.23;5.53;;;4.50;82.50;;;;;;6229963;28;20746;-81
2024/01/24 00:22:27;;;;;;;11.13;5.70;;;4.50;82.70;;;;;;6227427;28;20231;-77
2024/01/24 00:25:31;;;;;;;10.07;5.83;;;4.60;82.60;;;;;;6228434;28;20261;-79
2024/01/24 00:28:34;;;;;;;10.20;6.17;;;4.70;82.70;;;;;;6236788;28;20235;-79
2024/01/24 00:31:37;;;;;;;14.00;6.23;;;4.60;83.00;;;;;;6234709;28;20948;-79
2024/01/24 00:34:40;;;;;;;15.30;5.93;;;4.70;83.20;;;;;;6233136;28;20238;-79
2024/01/24 00:37:45;;;;;;;12.03;6.20;;;4.70;83.50;;;;;;6235494;28;20227;-80
2024/01/24 00:40:49;;;;;;;8.70;5.67;;;4.70;83.90;;;;;;6238749;28;20241;-79
2024/01/24 00:43:53;;;;;;;6.73;5.20;;;4.70;83.60;;;;;;6239490;28;20781;-78
2024/01/24 00:46:56;;;;;;;12.70;5.93;;;4.80;83.80;;;;;;6237483;28;20262;-78
2024/01/24 00:49:59;;;;;;;10.47;5.30;;;4.90;83.90;;;;;;6232617;28;20266;-81
2024/01/24 00:53:05;;;;;;;7.20;5.73;;;4.90;84.10;;;;;;6239009;28;20238;-81
2024/01/24 00:56:09;;;;;;;12.23;5.63;;;4.90;84.20;;;;;;6236696;28;20231;-80
2024/01/24 00:59:12;;;;;;;10.63;5.23;;;4.90;84.40;;;;;;6236312;28;20321;-80
2024/01/24 01:02:16;;;;;;;12.40;5.10;;;4.90;84.50;;;;;;6238922;28;20450;-79
2024/01/24 01:05:19;;;;;;;10.07;5.67;;;5.00;84.50;;;;;;6234037;28;20750;-80
2024/01/24 01:08:23;;;;;;;6.83;4.93;;;5.00;84.60;;;;;;6238613;28;20329;-82
2024/01/24 01:11:27;;;;;;;9.07;4.83;;;5.00;84.80;;;;;;6239838;28;20230;-82
2024/01/24 01:14:30;;;;;;;6.40;4.53;;;5.00;85.10;;;;;;6236138;28;20309;-81
2024/01/24 01:17:33;;;;;;;7.13;4.90;;;5.00;85.10;;;;;;6239466;28;20233;-80
2024/01/24 01:20:37;;;;;;;5.33;4.90;;;5.00;85.10;;;;;;6240801;28;20591;-78
2024/01/24 01:23:40;;;;;;;10.43;5.77;;;5.00;85.20;;;;;;6223609;28;20620;-78
2024/01/24 01:26:44;;;;;;;7.03;4.60;;;5.10;85.10;;;;;;6230219;28;20228;-80
2024/01/24 01:29:47;;;;;;;5.87;4.57;;;5.10;85.10;;;;;;6267544;28;20237;-78
2024/01/24 01:32:50;;;;;;;7.03;5.13;;;5.30;85.10;;;;;;6271092;28;20234;-77
2024/01/24 01:35:54;;;;;;;5.53;4.47;;;5.30;84.80;;;;;;6269849;28;20249;-76
2024/01/24 01:39:15;;;;;;;5.27;4.30;;;5.40;84.70;;;;;;6233689;28;20216;-77
2024/01/24 01:42:20;;;;;;;7.03;4.57;;;5.50;84.90;;;;;;6245683;28;20246;-80
2024/01/24 01:45:24;;;;;;;4.63;4.20;;;5.50;85.10;;;;;;6248318;28;20219;-79
2024/01/24 01:48:28;;;;;;;3.93;3.57;;;5.50;85.30;;;;;;6250728;28;20233;-78
2024/01/24 01:51:31;;;;;;;4.33;4.10;;;5.50;85.50;;;;;;6269674;28;20227;-77
2024/01/24 01:54:35;;;;;;;5.13;4.10;;;5.50;85.70;;;;;;6271290;28;20286;-77
2024/01/24 01:57:47;;;;;;;4.33;4.00;;;5.60;85.60;;;;;;6269273;28;20325;-78
2024/01/24 02:00:51;;;;;;;4.03;3.73;;;5.60;85.50;;;;;;6266560;28;20243;-81
2024/01/24 02:03:54;;;;;;;4.97;4.00;;;5.70;85.50;;;;;;6270408;28;20223;-79
2024/01/24 02:06:57;;;;;;;3.80;3.60;;;5.70;85.50;;;;;;6246926;28;20231;-83
2024/01/24 02:10:00;;;;;;;4.10;4.00;;;5.70;85.70;;;;;;6270940;28;20242;-81
2024/01/24 02:13:08;;;;;;;4.87;4.10;;;5.70;85.70;;;;;;6269598;28;20242;-79
2024/01/24 02:16:13;;;;;;;3.90;3.60;;;5.70;85.70;;;;;;6252737;28;20261;-79
2024/01/24 02:19:21;;;;;;;3.87;3.77;;;5.80;85.70;;;;;;6260426;28;20235;-78
2024/01/24 02:22:24;;;;;;;3.93;3.73;;;5.80;85.70;;;;;;6269845;28;20230;-76
2024/01/24 02:25:28;;;;;;;3.70;3.53;;;5.90;85.50;;;;;;6269019;28;20955;-79
2024/01/24 02:28:31;;;;;;;3.90;3.70;;;5.90;85.30;;;;;;6258264;28;20219;-80
2024/01/24 02:31:35;;;;;;;4.13;3.80;;;5.90;85.40;;;;;;6265168;28;20386;-77
2024/01/24 02:34:38;;;;;;;3.70;3.50;;;6.00;85.30;;;;;;6269228;28;20227;-78
2024/01/24 02:37:41;;;;;;;4.10;3.90;;;6.00;85.20;;;;;;6261431;28;20229;-76
2024/01/24 02:40:46;;;;;;;3.63;3.43;;;6.10;85.10;;;;;;6269235;28;20273;-77
2024/01/24 02:43:49;;;;;;;3.90;3.70;;;6.10;85.00;;;;;;6267696;28;20286;-79
2024/01/24 02:46:52;;;;;;;3.90;3.63;;;6.10;85.20;;;;;;6252965;28;20233;-77
2024/01/24 02:49:57;;;;;;;4.17;3.97;;;6.20;85.00;;;;;;6264490;28;20382;-77
2024/01/24 02:53:00;;;;;;;4.07;3.90;;;6.20;85.00;;;;;;6239600;28;20245;-79
2024/01/24 02:56:05;;;;;;;4.70;4.43;;;6.20;84.90;;;;;;6237665;28;20223;-82
2024/01/24 02:59:08;;;;;;;4.23;3.93;;;6.30;84.90;;;;;;6237749;28;20290;-76
2024/01/24 03:02:11;;;;;;;4.53;4.30;;;6.30;84.70;;;;;;6239976;28;20301;-79
2024/01/24 03:05:14;;;;;;;4.60;4.23;;;6.40;84.70;;;;;;6238358;28;20231;-78
2024/01/24 03:08:17;;;;;;;4.80;4.50;;;6.40;84.70;;;;;;6221145;28;20251;-80
2024/01/24 03:11:22;;;;;;;4.00;3.80;;;6.40;84.90;;;;;;6219249;28;20763;-79
2024/01/24 03:14:25;;;;;;;4.43;4.20;;;6.50;84.80;;;;;;6220266;28;20782;-79
2024/01/24 03:17:29;;;;;;;3.83;3.73;;;6.60;84.50;;;;;;6207698;28;20845;-79
2024/01/24 03:20:32;;;;;;;4.50;4.27;;;6.70;84.20;;;;;;6225260;28;20270;-79
2024/01/24 03:23:37;;;;;;;4.20;3.90;;;6.80;84.00;;;;;;6218148;28;20776;-81
2024/01/24 03:26:44;;;;;;;4.00;3.90;;;6.80;83.90;;;;;;6206354;28;20620;-79
2024/01/24 03:29:48;;;;;;;4.37;4.23;;;6.90;83.50;;;;;;6212771;28;20831;-80
2024/01/24 03:32:51;;;;;;;4.23;3.93;;;6.90;83.50;;;;;;6234689;28;20235;-79
2024/01/24 03:35:54;;;;;;;4.30;3.93;;;6.90;83.60;;;;;;6235093;28;20596;-80
2024/01/24 03:38:57;;;;;;;4.27;4.07;;;6.90;83.60;;;;;;6237508;28;20242;-81
2024/01/24 03:42:02;;;;;;;4.03;3.70;;;7.00;83.30;;;;;;6236011;28;20238;-81
2024/01/24 03:45:06;;;;;;;4.20;3.90;;;7.00;83.30;;;;;;6234474;28;20520;-79
2024/01/24 03:48:10;;;;;;;4.33;4.00;;;7.10;83.20;;;;;;6215096;28;20242;-78
2024/01/24 03:51:13;;;;;;;4.30;4.00;;;7.10;83.20;;;;;;6200660;28;20235;-79
2024/01/24 03:54:16;;;;;;;4.70;4.30;;;7.20;83.20;;;;;;6201793;28;20743;-79
2024/01/24 03:57:21;;;;;;;4.37;4.00;;;7.10;83.30;;;;;;6204466;28;20240;-80
2024/01/24 04:00:24;;;;;;;3.93;3.70;;;7.20;83.40;;;;;;6210998;28;21011;-80
2024/01/24 04:03:27;;;;;;;4.17;3.87;;;7.30;83.10;;;;;;6231724;28;20238;-79
2024/01/24 04:06:30;;;;;;;3.80;3.60;;;7.30;83.10;;;;;;6240005;28;20238;-79
2024/01/24 04:09:34;;;;;;;4.17;3.87;;;7.40;82.80;;;;;;6240028;28;20731;-80
2024/01/24 04:12:38;;;;;;;3.93;3.47;;;7.40;83.00;;;;;;6240744;28;20305;-79
2024/01/24 04:15:42;;;;;;;4.20;3.87;;;7.50;82.90;;;;;;6239711;28;20258;-79
2024/01/24 04:18:50;;;;;;;3.50;3.30;;;7.50;82.80;;;;;;6234002;28;20258;-79
2024/01/24 04:21:53;;;;;;;4.03;3.80;;;7.50;83.00;;;;;;6239584;28;20235;-80
2024/01/24 04:24:58;;;;;;;5.30;3.50;;;7.50;83.20;;;;;;6237450;28;20864;-79
2024/01/24 04:28:03;;;;;;;3.87;3.57;;;7.50;83.20;;;;;;6239700;28;20735;-79
2024/01/24 04:31:06;;;;;;;3.97;3.67;;;7.50;83.70;;;;;;6234836;28;20234;-79
2024/01/24 04:34:10;;;;;;;3.70;3.60;;;7.50;83.80;;;;;;6237683;28;20288;-79
2024/01/24 04:37:13;;;;;;;3.83;3.63;;;7.50;83.90;;;;;;6197431;28;20591;-80
2024/01/24 04:40:16;;;;;;;3.80;3.60;;;7.70;83.70;;;;;;6239427;28;20367;-79
2024/01/24 04:43:24;;;;;;;5.13;3.50;;;7.80;83.50;;;;;;6238872;28;20861;-80
2024/01/24 04:46:27;;;;;;;4.80;3.93;;;7.80;83.50;;;;;;6244772;28;20328;-79
2024/01/24 04:49:30;;;;;;;4.27;3.67;;;7.90;83.30;;;;;;6247282;28;20229;-79
2024/01/24 04:52:46;;;;;;;3.73;3.40;;;8.00;83.20;;;;;;6237020;28;20246;-79
2024/01/24 04:55:50;;;;;;;3.80;3.40;;;8.00;83.10;;;;;;6217760;28;20243;-80
2024/01/24 04:58:54;;;;;;;3.57;3.30;;;8.10;83.00;;;;;;6214965;28;20620;-78
2024/01/24 05:01:57;;;;;;;3.47;3.17;;;8.20;82.70;;;;;;6214179;28;20327;-78
2024/01/24 05:05:00;;;;;;;3.57;3.37;;;8.30;82.60;;;;;;6218435;28;20250;-79
2024/01/24 05:08:03;;;;;;;3.90;3.20;;;8.40;82.60;;;;;;6213244;28;20257;-79
2024/01/24 05:11:07;;;;;;;3.80;3.60;;;8.40;82.40;;;;;;6226858;28;20242;-79
2024/01/24 05:14:11;;;;;;;3.27;3.13;;;8.50;82.40;;;;;;6215065;28;20310;-78
2024/01/24 05:17:14;;;;;;;3.70;3.40;;;8.60;82.30;;;;;;6208909;28;20326;-79
2024/01/24 05:20:18;;;;;;;4.40;3.87;;;8.60;82.10;;;;;;6215451;28;20231;-79
2024/01/24 05:23:24;;;;;;;3.47;3.33;;;8.60;82.10;;;;;;6214904;28;20270;-79
2024/01/24 05:26:28;;;;;;;4.13;3.77;;;8.70;82.10;;;;;;6217810;28;20258;-79
2024/01/24 05:29:32;;;;;;;3.07;2.97;;;8.80;82.20;;;;;;6211909;28;20235;-79
2024/01/24 05:32:35;;;;;;;3.90;3.60;;;8.90;82.10;;;;;;6213892;28;20287;-79
2024/01/24 05:35:39;;;;;;;4.57;3.73;;;8.90;82.00;;;;;;6230254;28;20237;-78
2024/01/24 05:38:42;;;;;;;3.33;3.13;;;8.90;82.00;;;;;;6248071;28;20242;-79
2024/01/24 05:41:45;;;;;;;3.67;3.30;;;8.90;81.90;;;;;;6242528;28;20568;-78
2024/01/24 05:44:49;;;;;;;3.10;3.00;;;9.00;82.00;;;;;;6232696;28;20300;-79
2024/01/24 05:47:53;;;;;;;3.53;3.23;;;9.00;82.30;;;;;;6237126;28;20730;-78
2024/01/24 05:50:56;;;;;;;3.00;2.83;;;9.00;82.30;;;;;;6239614;28;20243;-78
2024/01/24 05:53:59;;;;;;;3.90;3.70;;;9.00;82.30;;;;;;6239786;28;20732;-79
2024/01/24 05:57:02;;;;;;;3.30;3.10;;;9.00;82.40;;;;;;6232201;28;20247;-78
2024/01/24 06:00:09;;;;;;;3.13;3.03;;;9.00;82.30;;;;;;6245110;28;20234;-78
2024/01/24 06:03:12;;;;;;;4.70;3.30;;;9.20;82.10;;;;;;6240735;28;20255;-80
2024/01/24 06:06:18;;;;;;;3.00;2.80;;;9.20;82.10;;;;;;6236881;28;20411;-80
2024/01/24 06:09:22;;;;;;;3.20;3.00;;;9.20;82.30;;;;;;6213214;28;20232;-79
2024/01/24 06:12:25;;;;;;;3.37;3.20;;;9.20;82.80;;;;;;6241276;28;20257;-79
2024/01/24 06:15:30;;;;;;;3.53;3.17;;;9.20;83.00;;;;;;6225472;28;20245;-79
2024/01/24 06:18:33;;;;;;;3.40;3.20;;;9.20;83.40;;;;;;6237892;28;20342;-79
2024/01/24 06:21:36;;;;;;;3.20;3.10;;;9.20;83.80;;;;;;6220444;28;20246;-77
2024/01/24 06:24:40;;;;;;;4.00;3.47;;;9.20;84.00;;;;;;6235756;28;20257;-76
2024/01/24 06:27:45;;;;;;;3.07;2.97;;;9.30;83.60;;;;;;6238597;28;20222;-78
2024/01/24 06:30:51;;;;;;;3.40;3.30;;;9.40;83.30;;;;;;6237036;28;20330;-77
2024/01/24 06:33:54;;;;;;;3.37;3.27;;;9.40;83.00;;;;;;6235326;28;20258;-78
2024/01/24 06:36:57;;;;;;;3.43;3.13;;;9.40;82.90;;;;;;6245043;28;20289;-78
2024/01/24 06:40:01;;;;;;;3.60;3.50;;;9.40;82.70;;;;;;6234933;28;20249;-77
2024/01/24 06:43:04;;;;;;;2.93;2.83;;;9.50;82.60;;;;;;6236668;28;20230;-79
2024/01/24 06:46:09;;;;;;;3.17;3.07;;;9.50;82.50;;;;;;6234230;28;20227;-77
2024/01/24 06:49:12;;;;;;;3.03;2.87;;;9.60;82.00;;;;;;6235672;28;20342;-77
2024/01/24 06:52:16;;;;;;;3.30;3.00;;;9.70;81.70;;;;;;6238196;28;20234;-77
2024/01/24 06:55:19;;;;;;;3.10;2.90;;;9.70;81.70;;;;;;6241082;28;20285;-76
2024/01/24 06:58:22;;;;;;;2.70;2.60;;;9.80;81.60;;;;;;6237349;28;20246;-77
2024/01/24 07:01:27;;;;;;;3.10;3.10;;;9.80;81.70;;;;;;6245784;28;20253;-78
2024/01/24 07:04:31;;;;;;;2.73;2.40;;;9.80;81.90;;;;;;6244720;28;20239;-77
2024/01/24 07:07:34;;;;;;;3.07;2.97;;;9.80;82.30;;;;;;6208604;28;20242;-79
2024/01/24 07:10:37;;;;;;;3.70;2.50;;;9.70;82.10;;;;;;6214058;28;20234;-79
2024/01/24 07:13:40;;;;;;;2.60;2.50;;;9.40;80.90;;;;;;6206711;28;20231;-80
2024/01/24 07:16:45;;;;;;;3.10;2.90;;;9.30;81.30;;;;;;6221478;28;20246;-78
2024/01/24 07:19:50;;;;;;;4.57;2.73;;;9.10;82.10;;;;;;6217255;28;20251;-77
2024/01/24 07:22:54;;;;;;;4.80;3.00;;;9.00;82.00;;;;;;6213804;28;20590;-79
2024/01/24 07:25:57;;;;;;;5.17;3.27;;;9.20;81.60;;;;;;6210485;28;20802;-78
2024/01/24 07:29:02;;;;;;;4.40;3.13;;;9.20;81.50;;;;;;6210308;28;20232;-77
2024/01/24 07:32:07;;;;;;;5.17;3.10;;;9.40;81.20;;;;;;6216350;28;20616;-78
2024/01/24 07:35:11;;;;;;;4.03;2.80;;;9.40;81.10;;;;;;6208655;28;20309;-79
2024/01/24 07:38:14;;;;;;;6.37;3.23;;;9.40;80.80;;;;;;6215268;28;20243;-79
2024/01/24 07:41:17;;;;;;;6.70;3.13;;;9.50;80.70;;;;;;6219342;28;21901;-81
2024/01/24 07:44:20;;;;;;;9.43;3.97;;;9.50;80.20;;;;;;6221249;28;20258;-76
2024/01/24 07:47:25;;;;;;;7.93;3.67;;;9.60;79.70;;;;;;6217755;28;20247;-79
2024/01/24 07:50:31;;;;;;;10.60;3.87;;;9.60;79.60;;;;;;6221268;28;20297;-77
2024/01/24 07:53:36;;;;;;;9.47;3.70;;;9.60;79.60;;;;;;6244504;28;20241;-79
2024/01/24 07:56:39;;;;;;;6.17;3.37;;;9.70;79.20;;;;;;6243153;28;20237;-77
2024/01/24 07:59:43;;;;;;;7.97;4.00;;;9.70;79.10;;;;;;6245555;28;20337;-77
2024/01/24 08:02:49;;;;;;;10.97;4.40;;;9.60;79.20;;;;;;6246174;28;20327;-76
2024/01/24 08:05:54;;;;;;;12.17;4.20;;;9.80;78.70;;;;;;6224309;28;20837;-76
2024/01/24 08:08:57;;;;;;;8.27;4.37;;;9.80;78.60;;;;;;6208739;28;20743;-77
2024/01/24 08:12:00;;;;;;;10.00;4.10;;;9.80;78.50;;;;;;6212024;28;20243;-76
2024/01/24 08:15:05;;;;;;;14.03;5.03;;;9.80;78.50;;;;;;6206896;28;20846;-78
2024/01/24 08:18:11;;;;;;;6.70;4.00;;;9.80;78.40;;;;;;6208297;28;20239;-76
2024/01/24 08:21:14;;;;;;;6.90;4.07;;;9.80;78.30;;;;;;6207032;28;20235;-78
2024/01/24 08:24:17;;;;;;;9.40;4.50;;;9.80;78.40;;;;;;6208752;28;20251;-77
2024/01/24 08:27:20;;;;;;;10.50;4.00;;;9.70;79.00;;;;;;6209644;28;20239;-78
2024/01/24 08:30:23;;;;;;;9.40;4.40;;;9.70;79.30;;;;;;6208478;28;20601;-79
2024/01/24 08:33:28;;;;;;;4.63;3.60;;;9.80;79.50;;;;;;6208026;28;20238;-78
2024/01/24 08:36:31;;;;;;;8.13;4.03;;;9.70;79.80;;;;;;6210409;28;20235;-79
2024/01/24 08:39:34;;;;;;;8.97;4.50;;;9.80;79.10;;;;;;6208679;28;20272;-77
2024/01/24 08:42:40;;;;;;;4.90;4.00;;;9.80;78.70;;;;;;6207670;28;20236;-77
2024/01/24 08:45:43;;;;;;;9.03;4.07;;;9.90;78.70;;;;;;6199673;28;20369;-78
2024/01/24 08:48:50;;;;;;;5.17;3.57;;;10.00;78.20;;;;;;6208370;28;20381;-80
2024/01/24 08:51:54;;;;;;;7.23;3.53;;;10.00;77.90;;;;;;6204861;28;20239;-79
2024/01/24 08:54:57;;;;;;;4.53;4.10;;;10.10;77.40;;;;;;6204685;28;20242;-79
2024/01/24 08:58:03;;;;;;;8.90;3.97;;;10.00;77.50;;;;;;6212188;28;20242;-78
2024/01/24 09:01:07;;;;;;;8.40;3.37;;;10.00;75.00;;;;;;6230305;28;20242;-77
2024/01/24 09:04:12;;;;;;;8.37;3.83;;;9.90;74.90;;;;;;6232629;28;20243;-77
2024/01/24 09:07:19;;;;;;;9.60;4.37;;;9.80;74.10;;;;;;6230652;28;20611;-78
2024/01/24 09:10:22;;;;;;;9.33;4.10;;;9.80;72.90;;;;;;6232514;28;20235;-78
2024/01/24 09:13:26;;;;;;;8.60;3.27;;;9.80;72.00;;;;;;6230875;28;20238;-78
2024/01/24 09:16:29;;;;;;;10.03;4.30;;;9.70;71.60;;;;;;6230208;28;20445;-78
2024/01/24 09:19:33;;;;;;;5.83;3.70;;;9.50;72.10;;;;;;6231202;28;21461;-77
2024/01/24 09:22:37;;;;;;;6.83;3.63;;;9.40;71.50;;;;;;6230720;28;20330;-78
2024/01/24 09:25:40;;;;;;;10.07;4.23;;;9.40;71.10;;;;;;6230246;28;20238;-79
2024/01/24 09:28:43;;;;;;;7.63;4.47;;;9.40;71.00;;;;;;6231064;28;20499;-78
2024/01/24 09:31:47;;;;;;;6.13;3.47;;;9.40;70.10;;;;;;6230091;28;20266;-77
2024/01/24 09:34:51;;;;;;;8.90;3.97;;;9.50;69.10;;;;;;6231076;28;20249;-77
2024/01/24 09:37:55;;;;;;;9.47;3.73;;;9.60;68.50;;;;;;6230547;28;20326;-78
2024/01/24 09:41:02;;;;;;;9.10;3.53;;;9.80;68.20;;;;;;6230236;28;20291;-77
2024/01/24 09:44:06;;;;;;;6.10;3.90;;;9.80;68.70;;;;;;6229480;28;20573;-79
2024/01/24 09:47:10;;;;;;;9.13;4.10;;;10.00;69.00;;;;;;6231547;28;20242;-78
2024/01/24 09:50:15;;;;;;;9.53;4.17;;;10.00;69.40;;;;;;6230652;28;20231;-76
2024/01/24 09:53:20;;;;;;;7.20;4.30;;;10.00;69.50;;;;;;6230186;28;20286;-78
2024/01/24 09:56:26;;;;;;;14.97;4.63;;;10.10;69.60;;;;;;6230636;28;20711;-78
2024/01/24 09:59:29;;;;;;;7.37;4.47;;;10.20;69.80;;;;;;6230025;28;20239;-77
2024/01/24 10:02:32;;;;;;;10.57;4.33;;;10.30;69.90;;;;;;6230673;28;20246;-76
2024/01/24 10:05:38;;;;;;;6.90;3.93;;;10.30;70.30;;;;;;6230722;28;20254;-78
2024/01/24 10:08:41;;;;;;;8.53;4.30;;;10.40;70.70;;;;;;6230810;28;20417;-76
2024/01/24 10:11:44;;;;;;;6.97;3.93;;;10.40;70.90;;;;;;6229157;28;20243;-77
2024/01/24 10:14:47;;;;;;;11.37;4.50;;;10.50;71.60;;;;;;6229114;28;20376;-76
2024/01/24 10:17:50;;;;;;;8.03;4.10;;;10.70;70.90;;;;;;6230223;28;20238;-77
2024/01/24 10:20:56;;;;;;;8.30;4.60;;;10.60;71.00;;;;;;6231022;28;20842;-76
2024/01/24 10:24:00;;;;;;;10.57;5.00;;;10.50;71.20;;;;;;6230548;28;20234;-76
2024/01/24 10:27:05;;;;;;;12.53;4.93;;;10.40;71.40;;;;;;6228830;28;20663;-79
2024/01/24 10:30:12;;;;;;;8.30;4.27;;;10.40;71.50;;;;;;6229566;28;20249;-77
2024/01/24 10:33:16;;;;;;;8.53;4.80;;;10.40;71.60;;;;;;6230999;28;20235;-76
2024/01/24 10:36:23;;;;;;;10.57;4.50;;;10.40;71.60;;;;;;6230311;28;20243;-77
2024/01/24 10:39:36;;;;;;;9.40;5.03;;;10.40;71.40;;;;;;6229857;28;20245;-77
2024/01/24 10:42:42;;;;;;;14.20;5.07;;;10.50;70.80;;;;;;6227137;28;20829;-77
2024/01/24 10:45:47;;;;;;;15.60;5.70;;;10.70;68.80;;;;;;6229046;28;20242;-76
2024/01/24 10:48:54;;;;;;;13.43;5.23;;;10.80;68.60;;;;;;6230048;28;20246;-78
2024/01/24 10:51:59;;;;;;;12.40;6.33;;;10.90;67.50;;;;;;6229427;28;20389;-78
2024/01/24 10:55:06;;;;;;;13.00;5.57;;;11.00;67.10;;;;;;6218781;28;20278;-78
2024/01/24 10:58:11;;;;;;;14.00;5.83;;;11.00;66.80;;;;;;6227464;28;20313;-77
2024/01/24 11:01:14;;;;;;;10.37;5.17;;;11.00;66.90;;;;;;6228520;28;20755;-78
2024/01/24 11:04:22;;;;;;;12.80;5.27;;;11.00;66.50;;;;;;6221792;28;20250;-76
2024/01/24 11:07:34;;;;;;;15.93;6.10;;;11.00;66.20;;;;;;6215102;28;20245;-77
2024/01/24 11:10:40;;;;;;;13.20;5.03;;;10.90;66.40;;;;;;6217501;28;20256;-77
2024/01/24 11:13:43;;;;;;;15.87;5.63;;;11.00;66.60;;;;;;6214869;28;20250;-78
2024/01/24 11:16:46;;;;;;;12.27;5.43;;;11.00;66.20;;;;;;6204971;28;20251;-77
2024/01/24 11:19:50;;;;;;;10.63;4.87;;;10.90;66.20;;;;;;6208339;28;20262;-78
2024/01/24 11:22:54;;;;;;;9.63;5.40;;;10.90;66.00;;;;;;6205391;28;20276;-78
2024/01/24 11:25:57;;;;;;;15.10;5.50;;;10.90;65.80;;;;;;6217891;28;20262;-79
2024/01/24 11:29:06;;;;;;;16.27;5.47;;;10.90;65.30;;;;;;6215854;28;20235;-78
2024/01/24 11:32:10;;;;;;;18.00;5.83;;;10.90;65.40;;;;;;6236682;28;20239;-76
2024/01/24 11:35:26;;;;;;;21.53;6.60;;;10.90;65.60;;;;;;6240974;28;20242;-77
2024/01/24 11:38:35;;;;;;;14.40;5.57;;;10.80;65.50;;;;;;6228629;28;20742;-77
2024/01/24 11:41:41;;;;;;;13.27;5.40;;;10.80;65.20;;;;;;6235702;28;20415;-76
2024/01/24 11:44:44;;;;;;;12.50;5.37;;;10.90;64.70;;;;;;6240367;28;20242;-78
2024/01/24 11:47:48;;;;;;;10.50;4.87;;;10.80;64.60;;;;;;6240726;28;20364;-78
2024/01/24 11:50:56;;;;;;;13.40;5.50;;;10.90;64.00;;;;;;6222041;28;20237;-77
2024/01/24 11:54:03;;;;;;;15.83;5.60;;;10.90;64.10;;;;;;6233008;28;20250;-78
2024/01/24 11:57:06;;;;;;;13.43;5.30;;;10.90;64.30;;;;;;6201071;28;20239;-77
2024/01/24 12:00:14;;;;;;;18.77;5.97;;;10.90;64.30;;;;;;6206157;28;20266;-75
2024/01/24 12:03:17;;;;;;;13.73;6.03;;;10.90;63.50;;;;;;6205260;28;20759;-78
2024/01/24 12:06:21;;;;;;;15.20;6.00;;;11.00;63.70;;;;;;6203065;28;20289;-79
2024/01/24 12:09:26;;;;;;;12.97;4.77;;;11.30;63.40;;;;;;6203418;28;20246;-77
2024/01/24 12:12:30;;;;;;;9.13;4.93;;;11.40;62.50;;;;;;6202414;28;20614;-78
2024/01/24 12:15:34;;;;;;;12.90;4.50;;;11.40;61.90;;;;;;6204193;28;20252;-78
2024/01/24 12:18:37;;;;;;;17.57;5.70;;;11.40;61.60;;;;;;6204970;28;20243;-78
2024/01/24 12:21:41;;;;;;;10.47;4.97;;;11.30;61.90;;;;;;6201993;28;20798;-78
2024/01/24 12:24:47;;;;;;;14.63;5.67;;;11.20;61.90;;;;;;6225754;28;20317;-78
2024/01/24 12:27:53;;;;;;;11.30;5.03;;;11.10;62.00;;;;;;6230266;28;20239;-78
2024/01/24 12:30:57;;;;;;;14.80;5.20;;;11.10;62.20;;;;;;6232763;28;20231;-78
2024/01/24 12:34:00;;;;;;;13.63;4.93;;;11.00;62.90;;;;;;6234062;28;20253;-76
2024/01/24 12:37:05;;;;;;;11.63;5.60;;;10.90;63.30;;;;;;6232329;28;20304;-77
2024/01/24 12:40:12;;;;;;;15.37;5.73;;;10.90;63.30;;;;;;6228381;28;20238;-77
2024/01/24 12:43:15;;;;;;;12.57;5.10;;;10.80;63.70;;;;;;6226081;28;20241;-78
2024/01/24 12:46:19;;;;;;;10.80;5.20;;;10.80;63.80;;;;;;6233535;28;20246;-74
2024/01/24 12:49:22;;;;;;;16.33;5.47;;;10.80;64.00;;;;;;6229723;28;20368;-78
2024/01/24 12:52:28;;;;;;;12.17;5.13;;;10.70;63.70;;;;;;6230043;28;20295;-79
2024/01/24 12:55:33;;;;;;;14.80;4.97;;;10.80;63.50;;;;;;6230070;28;20659;-76
2024/01/24 12:58:36;;;;;;;9.73;4.30;;;10.80;63.50;;;;;;6231830;28;20258;-80
2024/01/24 13:01:39;;;;;;;15.00;5.87;;;10.80;63.20;;;;;;6234499;28;20243;-78
2024/01/24 13:04:43;;;;;;;13.70;5.43;;;10.80;63.60;;;;;;6231482;28;20782;-79
2024/01/24 13:07:47;;;;;;;16.20;5.57;;;10.70;64.00;;;;;;6223582;28;20226;-78
2024/01/24 13:10:52;;;;;;;13.93;5.17;;;10.80;63.50;;;;;;6199941;28;20861;-78
2024/01/24 13:13:55;;;;;;;11.07;5.10;;;10.80;63.20;;;;;;6220380;28;20247;-77
2024/01/24 13:16:59;;;;;;;16.50;5.50;;;10.80;63.20;;;;;;6222032;28;20246;-82
2024/01/24 13:20:05;;;;;;;9.37;4.70;;;10.80;63.60;;;;;;6220317;28;20238;-78
2024/01/24 13:23:08;;;;;;;12.23;5.07;;;10.80;63.60;;;;;;6218234;28;20755;-78
2024/01/24 13:26:12;;;;;;;13.13;5.77;;;10.70;63.40;;;;;;6218253;28;20240;-79
2024/01/24 13:29:15;;;;;;;11.80;5.27;;;10.80;63.20;;;;;;6220607;28;20692;-78
2024/01/24 13:32:20;;;;;;;10.83;5.37;;;10.80;63.20;;;;;;6219496;28;20326;-78
2024/01/24 13:35:23;;;;;;;17.33;6.07;;;10.70;63.30;;;;;;6218030;28;20263;-80
2024/01/24 13:38:28;;;;;;;15.60;6.23;;;10.70;63.40;;;;;;6217203;28;20246;-77
2024/01/24 13:41:33;;;;;;;15.87;5.67;;;10.70;63.00;;;;;;6219406;28;20715;-80
2024/01/24 13:44:37;;;;;;;14.33;5.73;;;10.70;63.20;;;;;;6216481;28;20238;-78
2024/01/24 13:47:40;;;;;;;15.10;5.90;;;10.70;63.10;;;;;;6220355;28;20254;-77
2024/01/24 13:50:43;;;;;;;15.63;5.13;;;10.70;63.00;;;;;;6217377;28;20866;-80
2024/01/24 13:53:46;;;;;;;10.73;5.17;;;10.80;62.60;;;;;;6218874;28;20265;-79
2024/01/24 13:56:51;;;;;;;15.77;5.20;;;10.80;62.80;;;;;;6222176;28;20242;-79
2024/01/24 13:59:55;;;;;;;17.13;5.60;;;10.80;62.50;;;;;;6242475;28;21054;-80
2024/01/24 14:02:58;;;;;;;13.97;5.70;;;10.70;62.70;;;;;;6245259;28;20324;-78
2024/01/24 14:06:01;;;;;;;16.00;5.60;;;10.70;62.90;;;;;;6248791;28;20242;-77
2024/01/24 14:09:04;;;;;;;15.30;6.70;;;10.70;62.40;;;;;;6247054;28;20773;-79
2024/01/24 14:12:10;;;;;;;21.17;5.87;;;10.70;62.70;;;;;;6235889;28;20241;-77
2024/01/24 14:15:13;;;;;;;18.10;5.20;;;10.70;62.60;;;;;;6214891;28;20600;-76
2024/01/24 14:18:31;;;;;;;15.70;5.83;;;10.60;62.80;;;;;;6215447;28;20385;-75
2024/01/24 14:21:34;;;;;;;12.60;5.30;;;10.60;62.70;;;;;;6221959;28;20324;-77
2024/01/24 14:24:37;;;;;;;17.73;5.70;;;10.60;62.90;;;;;;6218060;28;20381;-79
2024/01/24 14:27:42;;;;;;;11.37;5.13;;;10.60;62.60;;;;;;6217689;28;20280;-78
2024/01/24 14:30:46;;;;;;;13.50;5.40;;;10.60;62.60;;;;;;6234680;28;20687;-80
2024/01/24 14:33:49;;;;;;;13.00;5.50;;;10.60;62.80;;;;;;6227562;28;20257;-77
2024/01/24 14:36:52;;;;;;;8.63;4.73;;;10.50;62.90;;;;;;6229517;28;20241;-79
2024/01/24 14:40:10;;;;;;;16.17;5.93;;;10.50;63.00;;;;;;6229508;28;20727;-79
2024/01/24 14:43:15;;;;;;;14.80;5.60;;;10.40;63.10;;;;;;6228826;28;20235;-78
2024/01/24 14:46:21;;;;;;;15.33;5.70;;;10.40;63.20;;;;;;6221060;28;20235;-78
2024/01/24 14:49:25;;;;;;;12.03;5.43;;;10.30;63.20;;;;;;6227927;28;20293;-79
2024/01/24 14:52:28;;;;;;;14.30;5.40;;;10.30;63.30;;;;;;6228758;28;20238;-79
2024/01/24 14:55:31;;;;;;;12.13;5.47;;;10.30;63.20;;;;;;6232243;28;20237;-76
2024/01/24 14:58:36;;;;;;;15.00;5.40;;;10.30;63.00;;;;;;6226900;28;20242;-79
2024/01/24 15:01:40;;;;;;;15.40;4.80;;;10.30;63.00;;;;;;6230560;28;20262;-78
2024/01/24 15:04:43;;;;;;;13.57;5.43;;;10.30;62.90;;;;;;6229217;28;20247;-79
2024/01/24 15:07:47;;;;;;;10.00;5.27;;;10.30;63.10;;;;;;6228101;28;20238;-79
2024/01/24 15:10:52;;;;;;;12.20;5.10;;;10.30;63.90;;;;;;6232381;28;20227;-78
2024/01/24 15:13:57;;;;;;;12.17;4.93;;;10.10;64.40;;;;;;6230143;28;20400;-77
2024/01/24 15:17:00;;;;;;;13.97;6.03;;;10.10;65.10;;;;;;6229535;28;20951;-79
2024/01/24 15:20:04;;;;;;;14.50;5.50;;;10.00;65.30;;;;;;6228848;28;20299;-78
2024/01/24 15:23:08;;;;;;;14.40;5.93;;;10.00;65.40;;;;;;6228693;28;20231;-80
2024/01/24 15:26:11;;;;;;;12.07;5.33;;;10.00;64.90;;;;;;6229448;28;20242;-79
2024/01/24 15:29:15;;;;;;;15.83;5.10;;;10.00;64.60;;;;;;6229596;28;20285;-78
2024/01/24 15:32:19;;;;;;;13.33;6.00;;;10.00;64.70;;;;;;6227081;28;20325;-77
2024/01/24 15:35:22;;;;;;;11.33;4.77;;;10.00;64.70;;;;;;6227314;28;20266;-79
2024/01/24 15:38:26;;;;;;;12.87;5.27;;;10.00;64.80;;;;;;6230185;28;20706;-75
2024/01/24 15:41:29;;;;;;;14.43;5.47;;;10.00;65.20;;;;;;6226927;28;20262;-76
2024/01/24 15:44:34;;;;;;;20.67;6.63;;;9.90;66.00;;;;;;6225149;28;20250;-78
2024/01/24 15:47:37;;;;;;;14.43;5.30;;;9.80;65.80;;;;;;6194407;28;20250;-79
2024/01/24 15:50:41;;;;;;;8.00;5.57;;;9.80;66.00;;;;;;6190498;28;20238;-78
2024/01/24 15:53:46;;;;;;;10.30;4.47;;;9.70;66.20;;;;;;6209207;28;20254;-80
2024/01/24 15:56:49;;;;;;;11.17;5.70;;;9.70;66.60;;;;;;6210888;28;20242;-80
2024/01/24 15:59:53;;;;;;;13.50;5.10;;;9.60;66.60;;;;;;6212999;28;20239;-76